sensor_id;sensor_type;location;lat;lon;timestamp;temperature;humidity
36186;DHT22;22228;53.222;7.446;2024-02-21T00:01:48;9.40;99.90
36186;DHT22;22228;53.222;7.446;2024-02-21T00:05:08;9.40;99.90
36186;DHT22;22228;53.222;7.446;2024-02-21T00:08:29;9.50;99.90
36186;DHT22;22228;53.222;7.446;2024-02-21T00:11:51;9.50;99.90
36186;DHT22;22228;53.222;7.446;2024-02-21T00:15:11;9.50;99.90
36186;DHT22;22228;53.222;7.446;2024-02-21T00:18:32;9.50;99.90
36186;DHT22;22228;53.222;7.446;2024-02-21T00:21:52;9.50;99.90
36186;DHT22;22228;53.222;7.446;2024-02-21T00:25:13;9.50;99.90
36186;DHT22;22228;53.222;7.446;2024-02-21T00:28:34;9.50;99.90
36186;DHT22;22228;53.222;7.446;2024-02-21T00:31:55;9.60;99.90
36186;DHT22;22228;53.222;7.446;2024-02-21T00:35:16;9.50;99.90
36186;DHT22;22228;53.222;7.446;2024-02-21T00:38:36;9.50;99.90
36186;DHT22;22228;53.222;7.446;2024-02-21T00:41:56;9.50;99.90
36186;DHT22;22228;53.222;7.446;2024-02-21T00:45:18;9.60;99.90
36186;DHT22;22228;53.222;7.446;2024-02-21T00:48:39;9.60;99.90
36186;DHT22;22228;53.222;7.446;2024-02-21T00:51:59;9.60;99.90
36186;DHT22;22228;53.222;7.446;2024-02-21T00:55:20;9.50;99.90
36186;DHT22;22228;53.222;7.446;2024-02-21T00:58:40;9.40;99.90
36186;DHT22;22228;53.222;7.446;2024-02-21T01:02:02;9.30;99.90
36186;DHT22;22228;53.222;7.446;2024-02-21T01:05:22;9.20;99.90
36186;DHT22;22228;53.222;7.446;2024-02-21T01:08:43;9.20;99.90
36186;DHT22;22228;53.222;7.446;2024-02-21T01:12:04;9.10;99.90
36186;DHT22;22228;53.222;7.446;2024-02-21T04:02:26;8.60;99.90
36186;DHT22;22228;53.222;7.446;2024-02-21T04:05:47;8.60;99.90
36186;DHT22;22228;53.222;7.446;2024-02-21T04:09:07;8.60;99.90
36186;DHT22;22228;53.222;7.446;2024-02-21T04:12:28;8.60;99.90
36186;DHT22;22228;53.222;7.446;2024-02-21T04:15:48;8.60;99.90
36186;DHT22;22228;53.222;7.446;2024-02-21T04:19:10;8.60;99.90
36186;DHT22;22228;53.222;7.446;2024-02-21T04:22:30;8.60;99.90
36186;DHT22;22228;53.222;7.446;2024-02-21T04:25:51;8.60;99.90
36186;DHT22;22228;53.222;7.446;2024-02-21T04:29:12;8.60;99.90
36186;DHT22;22228;53.222;7.446;2024-02-21T04:32:33;8.60;99.90
36186;DHT22;22228;53.222;7.446;2024-02-21T04:35:54;8.60;99.90
36186;DHT22;22228;53.222;7.446;2024-02-21T04:39:15;8.60;99.90
36186;DHT22;22228;53.222;7.446;2024-02-21T04:42:35;8.60;99.90
36186;DHT22;22228;53.222;7.446;2024-02-21T04:45:56;8.60;99.90
36186;DHT22;22228;53.222;7.446;2024-02-21T04:49:16;8.60;99.90
36186;DHT22;22228;53.222;7.446;2024-02-21T04:52:38;8.60;99.90
36186;DHT22;22228;53.222;7.446;2024-02-21T04:55:59;8.60;99.90
36186;DHT22;22228;53.222;7.446;2024-02-21T04:59:19;8.60;99.90
36186;DHT22;22228;53.222;7.446;2024-02-21T05:02:40;8.60;99.90
36186;DHT22;22228;53.222;7.446;2024-02-21T05:06:00;8.60;99.90
36186;DHT22;22228;53.222;7.446;2024-02-21T05:09:22;8.60;99.90
36186;DHT22;22228;53.222;7.446;2024-02-21T05:12:42;8.60;99.90
36186;DHT22;22228;53.222;7.446;2024-02-21T05:16:04;8.60;99.90
36186;DHT22;22228;53.222;7.446;2024-02-21T05:19:25;8.60;99.90
36186;DHT22;22228;53.222;7.446;2024-02-21T05:22:45;8.60;99.90
36186;DHT22;22228;53.222;7.446;2024-02-21T05:26:07;8.60;99.90
36186;DHT22;22228;53.222;7.446;2024-02-21T05:29:27;8.60;99.90
36186;DHT22;22228;53.222;7.446;2024-02-21T05:32:48;8.60;99.90
36186;DHT22;22228;53.222;7.446;2024-02-21T05:36:08;8.60;99.90
36186;DHT22;22228;53.222;7.446;2024-02-21T05:39:29;8.60;99.90
36186;DHT22;22228;53.222;7.446;2024-02-21T05:42:50;8.60;99.90
36186;DHT22;22228;53.222;7.446;2024-02-21T05:46:11;8.60;99.90
36186;DHT22;22228;53.222;7.446;2024-02-21T05:49:31;8.60;99.90
36186;DHT22;22228;53.222;7.446;2024-02-21T05:52:52;8.60;99.90
36186;DHT22;22228;53.222;7.446;2024-02-21T05:56:13;8.70;99.90
36186;DHT22;22228;53.222;7.446;2024-02-21T05:59:35;8.70;99.90
36186;DHT22;22228;53.222;7.446;2024-02-21T06:02:59;8.70;99.90
36186;DHT22;22228;53.222;7.446;2024-02-21T06:06:19;8.70;99.90
36186;DHT22;22228;53.222;7.446;2024-02-21T06:09:40;8.70;99.90
36186;DHT22;22228;53.222;7.446;2024-02-21T06:13:01;8.70;99.90
36186;DHT22;22228;53.222;7.446;2024-02-21T06:16:23;8.70;99.90
36186;DHT22;22228;53.222;7.446;2024-02-21T06:19:43;8.70;99.90
36186;DHT22;22228;53.222;7.446;2024-02-21T06:23:04;8.70;99.90
36186;DHT22;22228;53.222;7.446;2024-02-21T06:26:24;8.70;99.90
36186;DHT22;22228;53.222;7.446;2024-02-21T06:29:45;8.70;99.90
36186;DHT22;22228;53.222;7.446;2024-02-21T06:33:07;8.70;99.90
36186;DHT22;22228;53.222;7.446;2024-02-21T06:36:27;8.70;99.90
36186;DHT22;22228;53.222;7.446;2024-02-21T06:39:48;8.70;99.90
36186;DHT22;22228;53.222;7.446;2024-02-21T06:43:08;8.70;99.90
36186;DHT22;22228;53.222;7.446;2024-02-21T06:46:29;8.70;99.90
36186;DHT22;22228;53.222;7.446;2024-02-21T06:49:51;8.70;99.90
36186;DHT22;22228;53.222;7.446;2024-02-21T06:53:12;8.80;99.90
36186;DHT22;22228;53.222;7.446;2024-02-21T06:56:33;8.70;99.90
36186;DHT22;22228;53.222;7.446;2024-02-21T06:59:53;8.80;99.90
36186;DHT22;22228;53.222;7.446;2024-02-21T07:03:14;8.70;99.90
36186;DHT22;22228;53.222;7.446;2024-02-21T07:06:35;8.80;99.90
36186;DHT22;22228;53.222;7.446;2024-02-21T07:09:56;8.80;99.90
36186;DHT22;22228;53.222;7.446;2024-02-21T07:13:16;8.80;99.90
36186;DHT22;22228;53.222;7.446;2024-02-21T07:16:37;8.80;99.90
36186;DHT22;22228;53.222;7.446;2024-02-21T07:19:57;8.80;99.90
36186;DHT22;22228;53.222;7.446;2024-02-21T07:23:19;8.70;99.90
36186;DHT22;22228;53.222;7.446;2024-02-21T07:26:41;8.80;99.90
36186;DHT22;22228;53.222;7.446;2024-02-21T07:30:02;8.70;99.90
36186;DHT22;22228;53.222;7.446;2024-02-21T07:33:22;8.80;99.90
36186;DHT22;22228;53.222;7.446;2024-02-21T07:36:42;8.80;99.90
36186;DHT22;22228;53.222;7.446;2024-02-21T07:40:06;8.80;99.90
36186;DHT22;22228;53.222;7.446;2024-02-21T07:43:27;8.80;99.90
36186;DHT22;22228;53.222;7.446;2024-02-21T07:46:47;8.70;99.90
36186;DHT22;22228;53.222;7.446;2024-02-21T07:50:08;8.70;99.90
36186;DHT22;22228;53.222;7.446;2024-02-21T07:53:28;8.70;99.90
36186;DHT22;22228;53.222;7.446;2024-02-21T07:56:50;8.70;99.90
36186;DHT22;22228;53.222;7.446;2024-02-21T08:00:11;8.70;99.90
36186;DHT22;22228;53.222;7.446;2024-02-21T08:03:38;8.80;99.90
36186;DHT22;22228;53.222;7.446;2024-02-21T08:06:59;8.80;99.90
36186;DHT22;22228;53.222;7.446;2024-02-21T08:10:21;8.70;99.90
36186;DHT22;22228;53.222;7.446;2024-02-21T08:13:43;8.80;99.90
36186;DHT22;22228;53.222;7.446;2024-02-21T08:17:04;8.80;99.90
36186;DHT22;22228;53.222;7.446;2024-02-21T08:20:24;8.80;99.90
36186;DHT22;22228;53.222;7.446;2024-02-21T08:23:44;8.80;99.90
36186;DHT22;22228;53.222;7.446;2024-02-21T08:27:05;8.80;99.90
36186;DHT22;22228;53.222;7.446;2024-02-21T08:30:27;8.80;99.90
36186;DHT22;22228;53.222;7.446;2024-02-21T08:33:47;8.90;99.90
36186;DHT22;22228;53.222;7.446;2024-02-21T08:37:08;8.80;99.90
36186;DHT22;22228;53.222;7.446;2024-02-21T08:40:30;8.80;99.90
36186;DHT22;22228;53.222;7.446;2024-02-21T08:43:50;8.80;99.90
36186;DHT22;22228;53.222;7.446;2024-02-21T08:47:12;8.80;99.90
36186;DHT22;22228;53.222;7.446;2024-02-21T08:50:32;8.90;99.90
36186;DHT22;22228;53.222;7.446;2024-02-21T08:53:53;8.90;99.90
36186;DHT22;22228;53.222;7.446;2024-02-21T08:57:14;8.90;99.90
36186;DHT22;22228;53.222;7.446;2024-02-21T09:00:34;8.90;99.90
36186;DHT22;22228;53.222;7.446;2024-02-21T09:03:56;8.90;99.90
36186;DHT22;22228;53.222;7.446;2024-02-21T09:07:17;8.90;99.90
36186;DHT22;22228;53.222;7.446;2024-02-21T09:10:39;8.80;99.90
36186;DHT22;22228;53.222;7.446;2024-02-21T09:13:59;8.80;99.90
36186;DHT22;22228;53.222;7.446;2024-02-21T09:17:19;8.80;99.90
36186;DHT22;22228;53.222;7.446;2024-02-21T09:20:41;8.80;99.90
36186;DHT22;22228;53.222;7.446;2024-02-21T09:24:02;8.80;99.90
36186;DHT22;22228;53.222;7.446;2024-02-21T09:27:22;8.80;99.90
36186;DHT22;22228;53.222;7.446;2024-02-21T09:30:43;8.80;99.90
36186;DHT22;22228;53.222;7.446;2024-02-21T09:34:03;8.70;99.90
36186;DHT22;22228;53.222;7.446;2024-02-21T09:37:25;8.80;99.90
36186;DHT22;22228;53.222;7.446;2024-02-21T09:40:46;8.70;99.90
36186;DHT22;22228;53.222;7.446;2024-02-21T09:44:07;8.70;99.90
36186;DHT22;22228;53.222;7.446;2024-02-21T09:47:37;8.80;99.90
36186;DHT22;22228;53.222;7.446;2024-02-21T09:51:01;8.80;99.90
36186;DHT22;22228;53.222;7.446;2024-02-21T09:54:23;8.80;99.90
36186;DHT22;22228;53.222;7.446;2024-02-21T09:57:44;8.70;99.90
36186;DHT22;22228;53.222;7.446;2024-02-21T10:01:05;8.80;99.90
36186;DHT22;22228;53.222;7.446;2024-02-21T10:04:26;8.80;99.90
36186;DHT22;22228;53.222;7.446;2024-02-21T10:07:47;8.80;99.90
36186;DHT22;22228;53.222;7.446;2024-02-21T10:11:10;8.80;99.90
36186;DHT22;22228;53.222;7.446;2024-02-21T10:14:30;8.80;99.90
36186;DHT22;22228;53.222;7.446;2024-02-21T10:17:58;8.80;99.90
36186;DHT22;22228;53.222;7.446;2024-02-21T10:21:19;8.80;99.90
36186;DHT22;22228;53.222;7.446;2024-02-21T10:24:40;8.90;99.90
36186;DHT22;22228;53.222;7.446;2024-02-21T10:28:03;8.90;99.90
36186;DHT22;22228;53.222;7.446;2024-02-21T10:31:25;8.90;99.90
36186;DHT22;22228;53.222;7.446;2024-02-21T10:34:45;9.00;99.90
36186;DHT22;22228;53.222;7.446;2024-02-21T10:38:11;9.00;99.90
36186;DHT22;22228;53.222;7.446;2024-02-21T10:41:31;9.20;99.90
36186;DHT22;22228;53.222;7.446;2024-02-21T10:44:55;9.20;99.90
36186;DHT22;22228;53.222;7.446;2024-02-21T10:48:25;9.20;99.90
36186;DHT22;22228;53.222;7.446;2024-02-21T10:51:49;9.20;99.90
36186;DHT22;22228;53.222;7.446;2024-02-21T10:55:21;9.30;99.90
36186;DHT22;22228;53.222;7.446;2024-02-21T10:58:46;9.30;99.90
36186;DHT22;22228;53.222;7.446;2024-02-21T11:02:08;9.40;99.90
36186;DHT22;22228;53.222;7.446;2024-02-21T11:05:28;9.50;99.90
36186;DHT22;22228;53.222;7.446;2024-02-21T11:09:00;9.60;99.90
36186;DHT22;22228;53.222;7.446;2024-02-21T11:12:22;9.70;99.90
36186;DHT22;22228;53.222;7.446;2024-02-21T11:15:43;9.80;99.90
36186;DHT22;22228;53.222;7.446;2024-02-21T11:19:06;9.80;99.90
36186;DHT22;22228;53.222;7.446;2024-02-21T11:22:26;9.70;99.90
36186;DHT22;22228;53.222;7.446;2024-02-21T11:25:50;9.60;99.90
36186;DHT22;22228;53.222;7.446;2024-02-21T11:29:10;9.60;99.90
36186;DHT22;22228;53.222;7.446;2024-02-21T11:32:31;9.70;99.90
36186;DHT22;22228;53.222;7.446;2024-02-21T11:35:52;9.70;99.90
36186;DHT22;22228;53.222;7.446;2024-02-21T11:39:17;9.70;99.90
36186;DHT22;22228;53.222;7.446;2024-02-21T11:42:38;9.80;99.90
36186;DHT22;22228;53.222;7.446;2024-02-21T11:45:59;9.80;99.90
36186;DHT22;22228;53.222;7.446;2024-02-21T11:49:21;9.90;99.90
36186;DHT22;22228;53.222;7.446;2024-02-21T11:52:43;10.00;99.90
36186;DHT22;22228;53.222;7.446;2024-02-21T11:56:05;10.00;99.90
36186;DHT22;22228;53.222;7.446;2024-02-21T12:02:50;10.10;99.90
36186;DHT22;22228;53.222;7.446;2024-02-21T12:06:12;10.10;99.90
36186;DHT22;22228;53.222;7.446;2024-02-21T12:09:34;10.10;99.90
36186;DHT22;22228;53.222;7.446;2024-02-21T12:13:05;10.10;99.90
36186;DHT22;22228;53.222;7.446;2024-02-21T12:16:27;10.20;99.90
36186;DHT22;22228;53.222;7.446;2024-02-21T12:19:50;10.30;99.90
36186;DHT22;22228;53.222;7.446;2024-02-21T12:23:10;10.30;99.90
36186;DHT22;22228;53.222;7.446;2024-02-21T12:26:32;10.30;99.90
36186;DHT22;22228;53.222;7.446;2024-02-21T12:29:54;10.30;99.90
36186;DHT22;22228;53.222;7.446;2024-02-21T12:33:14;10.30;99.90
36186;DHT22;22228;53.222;7.446;2024-02-21T12:36:40;10.40;99.90
36186;DHT22;22228;53.222;7.446;2024-02-21T12:40:01;10.40;99.90
36186;DHT22;22228;53.222;7.446;2024-02-21T12:43:25;10.40;99.90
36186;DHT22;22228;53.222;7.446;2024-02-21T12:46:45;10.40;99.90
36186;DHT22;22228;53.222;7.446;2024-02-21T12:50:12;10.40;99.90
36186;DHT22;22228;53.222;7.446;2024-02-21T12:53:34;10.40;99.90
36186;DHT22;22228;53.222;7.446;2024-02-21T12:56:55;10.30;99.90
36186;DHT22;22228;53.222;7.446;2024-02-21T13:00:17;10.30;99.90
36186;DHT22;22228;53.222;7.446;2024-02-21T13:03:40;10.30;99.90
36186;DHT22;22228;53.222;7.446;2024-02-21T13:07:01;10.20;99.90
36186;DHT22;22228;53.222;7.446;2024-02-21T13:10:25;10.30;99.90
36186;DHT22;22228;53.222;7.446;2024-02-21T13:13:45;10.30;99.90
36186;DHT22;22228;53.222;7.446;2024-02-21T13:17:15;10.20;99.90
36186;DHT22;22228;53.222;7.446;2024-02-21T13:20:36;10.20;99.90
36186;DHT22;22228;53.222;7.446;2024-02-21T13:23:57;10.20;99.90
36186;DHT22;22228;53.222;7.446;2024-02-21T13:27:20;10.20;99.90
36186;DHT22;22228;53.222;7.446;2024-02-21T13:30:41;10.30;99.90
36186;DHT22;22228;53.222;7.446;2024-02-21T13:34:04;10.30;99.90
36186;DHT22;22228;53.222;7.446;2024-02-21T13:37:25;10.40;99.90
36186;DHT22;22228;53.222;7.446;2024-02-21T13:40:46;10.30;99.90
36186;DHT22;22228;53.222;7.446;2024-02-21T13:44:06;10.30;99.90
36186;DHT22;22228;53.222;7.446;2024-02-21T13:47:28;10.20;99.90
36186;DHT22;22228;53.222;7.446;2024-02-21T13:50:50;10.20;99.90
36186;DHT22;22228;53.222;7.446;2024-02-21T13:54:11;10.10;99.90
36186;DHT22;22228;53.222;7.446;2024-02-21T13:57:35;10.20;99.90
36186;DHT22;22228;53.222;7.446;2024-02-21T14:00:56;10.30;99.90
36186;DHT22;22228;53.222;7.446;2024-02-21T14:04:17;10.40;99.90
36186;DHT22;22228;53.222;7.446;2024-02-21T14:07:39;10.40;99.90
36186;DHT22;22228;53.222;7.446;2024-02-21T14:11:00;10.30;99.90
36186;DHT22;22228;53.222;7.446;2024-02-21T14:14:20;10.30;99.90
36186;DHT22;22228;53.222;7.446;2024-02-21T14:17:41;10.20;99.90
36186;DHT22;22228;53.222;7.446;2024-02-21T14:21:01;10.30;99.90
36186;DHT22;22228;53.222;7.446;2024-02-21T14:24:23;10.30;99.90
36186;DHT22;22228;53.222;7.446;2024-02-21T14:27:44;10.20;99.90
36186;DHT22;22228;53.222;7.446;2024-02-21T14:31:04;10.20;99.90
36186;DHT22;22228;53.222;7.446;2024-02-21T14:34:28;10.10;99.90
36186;DHT22;22228;53.222;7.446;2024-02-21T14:37:48;10.00;99.90
36186;DHT22;22228;53.222;7.446;2024-02-21T14:41:10;10.00;99.90
36186;DHT22;22228;53.222;7.446;2024-02-21T14:44:31;10.00;99.90
36186;DHT22;22228;53.222;7.446;2024-02-21T14:47:52;10.00;99.90
36186;DHT22;22228;53.222;7.446;2024-02-21T14:51:14;10.00;99.90
36186;DHT22;22228;53.222;7.446;2024-02-21T14:54:35;9.90;99.90
36186;DHT22;22228;53.222;7.446;2024-02-21T14:57:58;9.90;99.90
36186;DHT22;22228;53.222;7.446;2024-02-21T15:01:20;9.80;99.90
36186;DHT22;22228;53.222;7.446;2024-02-21T15:04:40;9.80;99.90
36186;DHT22;22228;53.222;7.446;2024-02-21T15:08:08;9.80;99.90
36186;DHT22;22228;53.222;7.446;2024-02-21T15:11:30;9.70;99.90
36186;DHT22;22228;53.222;7.446;2024-02-21T15:14:54;9.70;99.90
36186;DHT22;22228;53.222;7.446;2024-02-21T15:18:15;9.70;99.90
36186;DHT22;22228;53.222;7.446;2024-02-21T15:21:36;9.60;99.90
36186;DHT22;22228;53.222;7.446;2024-02-21T15:25:03;9.60;99.90
36186;DHT22;22228;53.222;7.446;2024-02-21T15:28:24;9.60;99.90
36186;DHT22;22228;53.222;7.446;2024-02-21T15:31:58;9.60;99.90
36186;DHT22;22228;53.222;7.446;2024-02-21T15:35:19;9.60;99.90
36186;DHT22;22228;53.222;7.446;2024-02-21T15:38:40;9.60;99.90
36186;DHT22;22228;53.222;7.446;2024-02-21T15:42:01;9.60;99.90
36186;DHT22;22228;53.222;7.446;2024-02-21T15:45:22;9.60;99.90
36186;DHT22;22228;53.222;7.446;2024-02-21T15:48:50;9.60;99.90
36186;DHT22;22228;53.222;7.446;2024-02-21T15:52:13;9.60;99.90
36186;DHT22;22228;53.222;7.446;2024-02-21T15:55:34;9.50;99.90
36186;DHT22;22228;53.222;7.446;2024-02-21T15:58:55;9.50;99.90
36186;DHT22;22228;53.222;7.446;2024-02-21T16:02:19;9.50;99.90
36186;DHT22;22228;53.222;7.446;2024-02-21T16:05:41;9.50;99.90
36186;DHT22;22228;53.222;7.446;2024-02-21T16:09:02;9.50;99.90
36186;DHT22;22228;53.222;7.446;2024-02-21T16:12:24;9.50;99.90
36186;DHT22;22228;53.222;7.446;2024-02-21T16:15:46;9.50;99.90
36186;DHT22;22228;53.222;7.446;2024-02-21T16:19:08;9.50;99.90
36186;DHT22;22228;53.222;7.446;2024-02-21T16:22:30;9.50;99.90
36186;DHT22;22228;53.222;7.446;2024-02-21T16:25:51;9.50;99.90
36186;DHT22;22228;53.222;7.446;2024-02-21T16:29:11;9.50;99.90
36186;DHT22;22228;53.222;7.446;2024-02-21T16:32:33;9.50;99.90
36186;DHT22;22228;53.222;7.446;2024-02-21T16:35:58;9.40;99.90
36186;DHT22;22228;53.222;7.446;2024-02-21T16:39:20;9.40;99.90
36186;DHT22;22228;53.222;7.446;2024-02-21T16:42:51;9.40;99.90
36186;DHT22;22228;53.222;7.446;2024-02-21T16:46:16;9.40;99.90
36186;DHT22;22228;53.222;7.446;2024-02-21T16:49:38;9.30;99.90
36186;DHT22;22228;53.222;7.446;2024-02-21T16:52:59;9.30;99.90
36186;DHT22;22228;53.222;7.446;2024-02-21T16:56:23;9.20;99.90
36186;DHT22;22228;53.222;7.446;2024-02-21T16:59:44;9.20;99.90
36186;DHT22;22228;53.222;7.446;2024-02-21T17:03:08;9.10;99.90
36186;DHT22;22228;53.222;7.446;2024-02-21T17:06:29;9.00;99.90
36186;DHT22;22228;53.222;7.446;2024-02-21T17:09:51;8.90;99.90
36186;DHT22;22228;53.222;7.446;2024-02-21T17:13:13;8.70;99.90
36186;DHT22;22228;53.222;7.446;2024-02-21T17:16:33;8.70;99.90
36186;DHT22;22228;53.222;7.446;2024-02-21T17:19:54;8.60;99.90
36186;DHT22;22228;53.222;7.446;2024-02-21T17:23:14;8.50;99.90
36186;DHT22;22228;53.222;7.446;2024-02-21T17:26:38;8.50;99.90
36186;DHT22;22228;53.222;7.446;2024-02-21T17:30:01;8.40;99.90
36186;DHT22;22228;53.222;7.446;2024-02-21T17:33:23;8.30;99.90
36186;DHT22;22228;53.222;7.446;2024-02-21T17:36:45;8.20;99.90
36186;DHT22;22228;53.222;7.446;2024-02-21T17:40:10;8.10;99.90
36186;DHT22;22228;53.222;7.446;2024-02-21T17:43:35;8.00;99.90
36186;DHT22;22228;53.222;7.446;2024-02-21T17:46:58;7.90;99.90
36186;DHT22;22228;53.222;7.446;2024-02-21T17:50:19;8.00;99.90
36186;DHT22;22228;53.222;7.446;2024-02-21T17:53:40;7.90;99.90
36186;DHT22;22228;53.222;7.446;2024-02-21T17:57:02;7.90;99.90
36186;DHT22;22228;53.222;7.446;2024-02-21T18:00:22;7.90;99.90
36186;DHT22;22228;53.222;7.446;2024-02-21T18:03:44;7.80;99.90
36186;DHT22;22228;53.222;7.446;2024-02-21T18:07:05;7.80;99.90
36186;DHT22;22228;53.222;7.446;2024-02-21T18:10:26;7.80;99.90
36186;DHT22;22228;53.222;7.446;2024-02-21T18:13:51;7.80;99.90
36186;DHT22;22228;53.222;7.446;2024-02-21T18:17:14;7.70;99.90
36186;DHT22;22228;53.222;7.446;2024-02-21T18:20:56;7.80;99.90
36186;DHT22;22228;53.222;7.446;2024-02-21T18:24:17;7.70;99.90
36186;DHT22;22228;53.222;7.446;2024-02-21T18:27:38;7.70;99.90
36186;DHT22;22228;53.222;7.446;2024-02-21T18:30:58;7.70;99.90
36186;DHT22;22228;53.222;7.446;2024-02-21T18:34:19;7.70;99.90
36186;DHT22;22228;53.222;7.446;2024-02-21T18:37:43;7.70;99.90
36186;DHT22;22228;53.222;7.446;2024-02-21T18:41:06;7.70;99.90
36186;DHT22;22228;53.222;7.446;2024-02-21T18:44:28;7.70;99.90
36186;DHT22;22228;53.222;7.446;2024-02-21T18:47:49;7.70;99.90
36186;DHT22;22228;53.222;7.446;2024-02-21T18:51:11;7.70;99.90
36186;DHT22;22228;53.222;7.446;2024-02-21T18:54:38;7.70;99.90
36186;DHT22;22228;53.222;7.446;2024-02-21T18:58:00;7.70;99.90
36186;DHT22;22228;53.222;7.446;2024-02-21T19:01:26;7.70;99.90
36186;DHT22;22228;53.222;7.446;2024-02-21T19:04:57;7.70;99.90
36186;DHT22;22228;53.222;7.446;2024-02-21T19:08:21;7.70;99.90
36186;DHT22;22228;53.222;7.446;2024-02-21T19:11:45;7.70;99.90
36186;DHT22;22228;53.222;7.446;2024-02-21T19:15:11;7.80;99.90
36186;DHT22;22228;53.222;7.446;2024-02-21T19:18:33;7.70;99.90
36186;DHT22;22228;53.222;7.446;2024-02-21T19:21:56;7.80;99.90
36186;DHT22;22228;53.222;7.446;2024-02-21T19:25:17;7.80;99.90
36186;DHT22;22228;53.222;7.446;2024-02-21T19:28:42;7.80;99.90
36186;DHT22;22228;53.222;7.446;2024-02-21T19:32:04;7.70;99.90
36186;DHT22;22228;53.222;7.446;2024-02-21T19:35:26;7.80;99.90
36186;DHT22;22228;53.222;7.446;2024-02-21T19:38:47;7.70;99.90
36186;DHT22;22228;53.222;7.446;2024-02-21T19:42:10;7.70;99.90
36186;DHT22;22228;53.222;7.446;2024-02-21T19:45:34;7.80;99.90
36186;DHT22;22228;53.222;7.446;2024-02-21T19:48:58;7.70;99.90
36186;DHT22;22228;53.222;7.446;2024-02-21T19:52:26;7.80;99.90
36186;DHT22;22228;53.222;7.446;2024-02-21T19:55:48;7.80;99.90
36186;DHT22;22228;53.222;7.446;2024-02-21T19:59:15;7.80;99.90
36186;DHT22;22228;53.222;7.446;2024-02-21T20:02:40;7.80;99.90
36186;DHT22;22228;53.222;7.446;2024-02-21T20:06:04;7.80;99.90
36186;DHT22;22228;53.222;7.446;2024-02-21T20:09:29;7.80;99.90
36186;DHT22;22228;53.222;7.446;2024-02-21T20:12:56;7.80;99.90
36186;DHT22;22228;53.222;7.446;2024-02-21T20:16:19;7.90;99.90
36186;DHT22;22228;53.222;7.446;2024-02-21T20:19:43;7.80;99.90
36186;DHT22;22228;53.222;7.446;2024-02-21T20:23:11;7.80;99.90
36186;DHT22;22228;53.222;7.446;2024-02-21T20:26:34;7.90;99.90
36186;DHT22;22228;53.222;7.446;2024-02-21T20:29:55;7.90;99.90
36186;DHT22;22228;53.222;7.446;2024-02-21T20:33:21;7.90;99.90
36186;DHT22;22228;53.222;7.446;2024-02-21T20:36:46;7.90;99.90
36186;DHT22;22228;53.222;7.446;2024-02-21T20:40:12;7.90;99.90
36186;DHT22;22228;53.222;7.446;2024-02-21T20:43:36;7.80;99.90
36186;DHT22;22228;53.222;7.446;2024-02-21T20:46:57;7.80;99.90
36186;DHT22;22228;53.222;7.446;2024-02-21T20:50:18;7.80;99.90
36186;DHT22;22228;53.222;7.446;2024-02-21T20:53:48;7.80;99.90
36186;DHT22;22228;53.222;7.446;2024-02-21T20:57:10;7.80;99.90
36186;DHT22;22228;53.222;7.446;2024-02-21T21:00:31;7.80;99.90
36186;DHT22;22228;53.222;7.446;2024-02-21T21:03:58;7.80;99.90
36186;DHT22;22228;53.222;7.446;2024-02-21T21:07:22;7.80;99.90
36186;DHT22;22228;53.222;7.446;2024-02-21T21:10:49;7.70;99.90
36186;DHT22;22228;53.222;7.446;2024-02-21T21:14:12;7.80;99.90
36186;DHT22;22228;53.222;7.446;2024-02-21T21:17:35;7.70;99.90
36186;DHT22;22228;53.222;7.446;2024-02-21T21:20:57;7.80;99.90
36186;DHT22;22228;53.222;7.446;2024-02-21T21:24:19;7.80;99.90
36186;DHT22;22228;53.222;7.446;2024-02-21T21:27:43;7.70;99.90
36186;DHT22;22228;53.222;7.446;2024-02-21T21:31:04;7.70;99.90
36186;DHT22;22228;53.222;7.446;2024-02-21T21:34:28;7.70;99.90
36186;DHT22;22228;53.222;7.446;2024-02-21T21:37:51;7.70;99.90
36186;DHT22;22228;53.222;7.446;2024-02-21T21:41:13;7.70;99.90
36186;DHT22;22228;53.222;7.446;2024-02-21T21:44:35;7.70;99.90
36186;DHT22;22228;53.222;7.446;2024-02-21T21:47:56;7.70;99.90
36186;DHT22;22228;53.222;7.446;2024-02-21T21:51:24;7.70;99.90
36186;DHT22;22228;53.222;7.446;2024-02-21T21:54:49;7.70;99.90
36186;DHT22;22228;53.222;7.446;2024-02-21T21:58:10;7.70;99.90
36186;DHT22;22228;53.222;7.446;2024-02-21T22:01:35;7.70;99.90
36186;DHT22;22228;53.222;7.446;2024-02-21T22:04:56;7.70;99.90
36186;DHT22;22228;53.222;7.446;2024-02-21T22:08:17;7.80;99.90
36186;DHT22;22228;53.222;7.446;2024-02-21T22:11:38;7.80;99.90
36186;DHT22;22228;53.222;7.446;2024-02-21T22:15:02;7.70;99.90
36186;DHT22;22228;53.222;7.446;2024-02-21T22:18:26;7.80;99.90
36186;DHT22;22228;53.222;7.446;2024-02-21T22:21:48;7.80;99.90
36186;DHT22;22228;53.222;7.446;2024-02-21T22:25:09;7.70;99.90
36186;DHT22;22228;53.222;7.446;2024-02-21T22:28:31;7.80;99.90
36186;DHT22;22228;53.222;7.446;2024-02-21T22:31:56;7.80;99.90
36186;DHT22;22228;53.222;7.446;2024-02-21T22:35:18;7.80;99.90
36186;DHT22;22228;53.222;7.446;2024-02-21T22:38:40;7.80;99.90
36186;DHT22;22228;53.222;7.446;2024-02-21T22:42:01;7.80;99.90
36186;DHT22;22228;53.222;7.446;2024-02-21T22:45:24;7.80;99.90
36186;DHT22;22228;53.222;7.446;2024-02-21T22:48:45;7.90;99.90
36186;DHT22;22228;53.222;7.446;2024-02-21T22:52:11;7.80;99.90
36186;DHT22;22228;53.222;7.446;2024-02-21T22:55:35;7.90;99.90
36186;DHT22;22228;53.222;7.446;2024-02-21T22:58:57;7.90;99.90
36186;DHT22;22228;53.222;7.446;2024-02-21T23:02:21;7.90;99.90
36186;DHT22;22228;53.222;7.446;2024-02-21T23:05:42;7.90;99.90
36186;DHT22;22228;53.222;7.446;2024-02-21T23:09:07;8.00;99.90
36186;DHT22;22228;53.222;7.446;2024-02-21T23:12:31;7.90;99.90
36186;DHT22;22228;53.222;7.446;2024-02-21T23:15:57;8.00;99.90
36186;DHT22;22228;53.222;7.446;2024-02-21T23:19:18;8.00;99.90
36186;DHT22;22228;53.222;7.446;2024-02-21T23:22:39;8.00;99.90
36186;DHT22;22228;53.222;7.446;2024-02-21T23:26:02;8.00;99.90
36186;DHT22;22228;53.222;7.446;2024-02-21T23:29:23;8.00;99.90
36186;DHT22;22228;53.222;7.446;2024-02-21T23:32:45;8.10;99.90
36186;DHT22;22228;53.222;7.446;2024-02-21T23:36:06;8.10;99.90
36186;DHT22;22228;53.222;7.446;2024-02-21T23:39:31;8.10;99.90
36186;DHT22;22228;53.222;7.446;2024-02-21T23:42:54;8.10;99.90
36186;DHT22;22228;53.222;7.446;2024-02-21T23:46:15;8.10;99.90
36186;DHT22;22228;53.222;7.446;2024-02-21T23:49:39;8.10;99.90
36186;DHT22;22228;53.222;7.446;2024-02-21T23:53:01;8.20;99.90
36186;DHT22;22228;53.222;7.446;2024-02-21T23:56:21;8.20;99.90
36186;DHT22;22228;53.222;7.446;2024-02-21T23:59:43;8.20;99.90
